sensor_id;sensor_type;location;lat;lon;timestamp;pressure;altitude;pressure_sealevel;temperature;humidity
22830;BME280;11581;51.250;6.778;2022-11-11T00:00:49;102419.28;;;11.68;61.79
22830;BME280;11581;51.250;6.778;2022-11-11T00:03:34;102503.81;;;12.05;61.91
22830;BME280;11581;51.250;6.778;2022-11-11T00:06:19;102534.19;;;12.04;61.94
22830;BME280;11581;51.250;6.778;2022-11-11T00:09:05;102532.50;;;12.03;61.96
22830;BME280;11581;51.250;6.778;2022-11-11T00:11:58;102556.66;;;12.01;62.15
22830;BME280;11581;51.250;6.778;2022-11-11T00:14:46;102543.41;;;12.00;62.40
22830;BME280;11581;51.250;6.778;2022-11-11T00:17:33;102536.38;;;11.99;62.38
22830;BME280;11581;51.250;6.778;2022-11-11T00:20:38;102481.00;;;11.65;62.25
22830;BME280;11581;51.250;6.778;2022-11-11T00:23:42;102506.06;;;11.75;61.99
22830;BME280;11581;51.250;6.778;2022-11-11T00:26:45;102529.53;;;11.95;62.08
22830;BME280;11581;51.250;6.778;2022-11-11T00:29:31;102488.69;;;11.69;62.10
22830;BME280;11581;51.250;6.778;2022-11-11T00:32:18;102533.38;;;11.91;62.65
22830;BME280;11581;51.250;6.778;2022-11-11T00:35:08;102439.59;;;11.34;62.42
22830;BME280;11581;51.250;6.778;2022-11-11T00:38:13;102530.94;;;11.88;62.48
22830;BME280;11581;51.250;6.778;2022-11-11T00:41:21;102501.09;;;11.70;62.21
22830;BME280;11581;51.250;6.778;2022-11-11T00:44:08;102531.31;;;11.83;62.47
22830;BME280;11581;51.250;6.778;2022-11-11T00:46:54;102496.09;;;11.66;62.49
22830;BME280;11581;51.250;6.778;2022-11-11T00:49:58;102526.28;;;11.79;62.95
22830;BME280;11581;51.250;6.778;2022-11-11T00:53:02;102538.03;;;11.76;62.72
22830;BME280;11581;51.250;6.778;2022-11-11T00:55:48;102524.06;;;11.73;62.61
22830;BME280;11581;51.250;6.778;2022-11-11T00:58:34;102530.50;;;11.70;62.75
22830;BME280;11581;51.250;6.778;2022-11-11T01:01:20;102535.97;;;11.69;62.77
22830;BME280;11581;51.250;6.778;2022-11-11T01:04:05;102535.22;;;11.67;62.87
22830;BME280;11581;51.250;6.778;2022-11-11T01:06:52;102538.09;;;11.64;63.27
22830;BME280;11581;51.250;6.778;2022-11-11T01:09:38;102536.50;;;11.49;62.96
22830;BME280;11581;51.250;6.778;2022-11-11T01:12:24;102545.53;;;11.59;63.05
22830;BME280;11581;51.250;6.778;2022-11-11T01:15:10;102496.28;;;11.26;63.13
22830;BME280;11581;51.250;6.778;2022-11-11T01:17:57;102520.41;;;11.38;63.17
22830;BME280;11581;51.250;6.778;2022-11-11T01:20:44;102556.72;;;11.53;63.32
22830;BME280;11581;51.250;6.778;2022-11-11T01:23:35;102550.59;;;11.51;63.92
22830;BME280;11581;51.250;6.778;2022-11-11T01:26:22;102533.44;;;11.42;63.57
22830;BME280;11581;51.250;6.778;2022-11-11T01:29:08;102546.91;;;11.41;63.50
22830;BME280;11581;51.250;6.778;2022-11-11T01:31:54;102476.44;;;11.05;63.44
22830;BME280;11581;51.250;6.778;2022-11-11T01:34:39;102490.34;;;11.10;63.53
22830;BME280;11581;51.250;6.778;2022-11-11T01:37:25;102532.78;;;11.38;63.63
22830;BME280;11581;51.250;6.778;2022-11-11T01:40:13;102524.03;;;11.24;64.13
22830;BME280;11581;51.250;6.778;2022-11-11T01:43:15;102465.78;;;10.80;65.26
22830;BME280;11581;51.250;6.778;2022-11-11T01:46:01;102550.00;;;11.34;63.82
22830;BME280;11581;51.250;6.778;2022-11-11T01:48:51;102550.09;;;11.33;64.39
22830;BME280;11581;51.250;6.778;2022-11-11T01:52:02;102526.00;;;11.09;64.91
22830;BME280;11581;51.250;6.778;2022-11-11T01:54:51;102552.88;;;11.31;64.41
22830;BME280;11581;51.250;6.778;2022-11-11T01:57:44;102495.03;;;10.94;64.48
22830;BME280;11581;51.250;6.778;2022-11-11T02:00:31;102523.97;;;11.13;63.77
22830;BME280;11581;51.250;6.778;2022-11-11T02:03:18;102481.16;;;10.89;64.16
22830;BME280;11581;51.250;6.778;2022-11-11T02:06:06;102483.94;;;10.88;64.07
22830;BME280;11581;51.250;6.778;2022-11-11T02:08:51;102494.19;;;10.94;64.15
22830;BME280;11581;51.250;6.778;2022-11-11T02:11:40;102536.25;;;11.15;64.54
22830;BME280;11581;51.250;6.778;2022-11-11T02:14:49;102548.94;;;11.24;65.08
22830;BME280;11581;51.250;6.778;2022-11-11T02:17:36;102489.91;;;10.79;64.35
22830;BME280;11581;51.250;6.778;2022-11-11T02:20:25;102406.47;;;10.39;64.58
22830;BME280;11581;51.250;6.778;2022-11-11T02:23:15;102459.59;;;10.67;64.99
22830;BME280;11581;51.250;6.778;2022-11-11T02:26:04;102523.53;;;11.06;65.01
22830;BME280;11581;51.250;6.778;2022-11-11T02:28:52;102548.19;;;11.22;64.86
22830;BME280;11581;51.250;6.778;2022-11-11T02:31:39;102488.41;;;10.87;64.59
22830;BME280;11581;51.250;6.778;2022-11-11T02:34:29;102546.50;;;11.21;65.36
22830;BME280;11581;51.250;6.778;2022-11-11T02:37:18;102546.50;;;11.21;65.12
22830;BME280;11581;51.250;6.778;2022-11-11T02:40:06;102524.28;;;11.08;64.84
22830;BME280;11581;51.250;6.778;2022-11-11T02:42:53;102544.78;;;11.20;64.91
22830;BME280;11581;51.250;6.778;2022-11-11T02:45:40;102543.06;;;11.19;64.78
22830;BME280;11581;51.250;6.778;2022-11-11T02:48:26;102526.97;;;11.08;64.77
22830;BME280;11581;51.250;6.778;2022-11-11T02:51:11;102503.88;;;10.95;64.76
22830;BME280;11581;51.250;6.778;2022-11-11T02:53:57;102487.03;;;10.82;64.66
22830;BME280;11581;51.250;6.778;2022-11-11T02:56:46;102484.69;;;10.77;64.81
22830;BME280;11581;51.250;6.778;2022-11-11T02:59:50;102543.19;;;11.05;65.01
22830;BME280;11581;51.250;6.778;2022-11-11T03:02:36;102556.75;;;11.15;64.63
22830;BME280;11581;51.250;6.778;2022-11-11T03:05:22;102557.59;;;11.15;64.72
22830;BME280;11581;51.250;6.778;2022-11-11T03:08:08;102533.47;;;11.04;64.97
22830;BME280;11581;51.250;6.778;2022-11-11T03:10:54;102543.53;;;11.13;64.97
22830;BME280;11581;51.250;6.778;2022-11-11T03:13:39;102550.66;;;11.13;65.02
22830;BME280;11581;51.250;6.778;2022-11-11T03:16:27;102457.47;;;10.60;65.18
22830;BME280;11581;51.250;6.778;2022-11-11T03:19:26;102461.97;;;10.59;64.86
22830;BME280;11581;51.250;6.778;2022-11-11T03:22:11;102543.97;;;11.07;64.98
22830;BME280;11581;51.250;6.778;2022-11-11T03:24:59;102368.66;;;9.95;65.24
22830;BME280;11581;51.250;6.778;2022-11-11T03:27:58;102553.88;;;11.05;64.97
22830;BME280;11581;51.250;6.778;2022-11-11T03:30:45;102556.75;;;11.02;65.22
22830;BME280;11581;51.250;6.778;2022-11-11T03:33:32;102561.34;;;11.00;65.36
22830;BME280;11581;51.250;6.778;2022-11-11T03:36:17;102512.34;;;10.76;65.14
22830;BME280;11581;51.250;6.778;2022-11-11T03:39:02;102541.16;;;10.96;65.32
22830;BME280;11581;51.250;6.778;2022-11-11T03:41:47;102536.03;;;10.93;65.36
22830;BME280;11581;51.250;6.778;2022-11-11T03:44:32;102538.91;;;10.90;65.30
22830;BME280;11581;51.250;6.778;2022-11-11T03:47:18;102513.81;;;10.80;65.33
22830;BME280;11581;51.250;6.778;2022-11-11T03:50:08;102523.34;;;10.84;66.00
22830;BME280;11581;51.250;6.778;2022-11-11T03:52:54;102530.28;;;10.87;65.30
22830;BME280;11581;51.250;6.778;2022-11-11T03:55:39;102533.06;;;10.85;65.30
22830;BME280;11581;51.250;6.778;2022-11-11T03:58:24;102533.16;;;10.84;65.29
22830;BME280;11581;51.250;6.778;2022-11-11T04:01:10;102534.97;;;10.83;65.30
22830;BME280;11581;51.250;6.778;2022-11-11T04:04:15;102440.59;;;10.22;65.33
22830;BME280;11581;51.250;6.778;2022-11-11T04:07:20;102484.47;;;10.43;65.48
22830;BME280;11581;51.250;6.778;2022-11-11T04:10:23;102527.28;;;10.66;65.20
22830;BME280;11581;51.250;6.778;2022-11-11T04:13:09;102539.25;;;10.73;65.28
22830;BME280;11581;51.250;6.778;2022-11-11T04:16:12;102548.44;;;10.69;65.50
22830;BME280;11581;51.250;6.778;2022-11-11T04:18:57;102562.75;;;10.68;65.40
22830;BME280;11581;51.250;6.778;2022-11-11T04:22:00;102556.63;;;10.66;65.31
22830;BME280;11581;51.250;6.778;2022-11-11T04:24:47;102559.50;;;10.63;65.84
22830;BME280;11581;51.250;6.778;2022-11-11T04:27:50;102561.41;;;10.61;65.53
22830;BME280;11581;51.250;6.778;2022-11-11T04:30:57;102541.56;;;10.53;65.40
22830;BME280;11581;51.250;6.778;2022-11-11T04:33:41;102464.94;;;10.03;65.54
22830;BME280;11581;51.250;6.778;2022-11-11T04:36:27;102560.78;;;10.58;65.56
22830;BME280;11581;51.250;6.778;2022-11-11T04:39:12;102529.78;;;10.30;65.60
22830;BME280;11581;51.250;6.778;2022-11-11T04:42:15;102373.63;;;9.36;65.79
22830;BME280;11581;51.250;6.778;2022-11-11T04:45:02;102559.47;;;10.38;65.81
22830;BME280;11581;51.250;6.778;2022-11-11T04:48:07;102557.56;;;10.53;65.89
22830;BME280;11581;51.250;6.778;2022-11-11T04:50:56;102529.03;;;10.28;66.44
22830;BME280;11581;51.250;6.778;2022-11-11T04:53:42;102538.31;;;10.35;65.86
22830;BME280;11581;51.250;6.778;2022-11-11T04:56:28;102559.41;;;10.52;66.05
22830;BME280;11581;51.250;6.778;2022-11-11T04:59:32;102565.66;;;10.51;66.17
22830;BME280;11581;51.250;6.778;2022-11-11T05:02:17;102564.75;;;10.52;66.06
22830;BME280;11581;51.250;6.778;2022-11-11T05:05:20;102556.72;;;10.52;66.03
22830;BME280;11581;51.250;6.778;2022-11-11T05:08:07;102539.84;;;10.52;66.24
22830;BME280;11581;51.250;6.778;2022-11-11T05:11:10;102523.84;;;10.39;66.08
22830;BME280;11581;51.250;6.778;2022-11-11T05:13:57;102544.13;;;10.54;66.31
22830;BME280;11581;51.250;6.778;2022-11-11T05:17:01;102532.16;;;10.47;66.27
22830;BME280;11581;51.250;6.778;2022-11-11T05:20:05;102505.03;;;10.28;66.03
22830;BME280;11581;51.250;6.778;2022-11-11T05:23:08;102547.34;;;10.59;65.98
22830;BME280;11581;51.250;6.778;2022-11-11T05:25:54;102547.34;;;10.59;65.96
22830;BME280;11581;51.250;6.778;2022-11-11T05:28:38;102553.31;;;10.63;66.74
22830;BME280;11581;51.250;6.778;2022-11-11T05:31:24;102475.56;;;10.17;65.62
22830;BME280;11581;51.250;6.778;2022-11-11T05:34:11;102535.38;;;10.52;66.04
22830;BME280;11581;51.250;6.778;2022-11-11T05:36:57;102562.94;;;10.65;65.95
22830;BME280;11581;51.250;6.778;2022-11-11T05:39:44;102446.06;;;9.94;65.91
22830;BME280;11581;51.250;6.778;2022-11-11T05:42:29;102587.69;;;10.67;65.92
22830;BME280;11581;51.250;6.778;2022-11-11T05:45:15;102482.81;;;10.15;65.84
22830;BME280;11581;51.250;6.778;2022-11-11T05:48:04;102573.81;;;10.62;65.98
22830;BME280;11581;51.250;6.778;2022-11-11T05:50:51;102591.13;;;10.69;66.14
22830;BME280;11581;51.250;6.778;2022-11-11T05:53:39;102585.88;;;10.68;65.75
22830;BME280;11581;51.250;6.778;2022-11-11T05:56:26;102578.75;;;10.68;65.70
22830;BME280;11581;51.250;6.778;2022-11-11T05:59:13;102535.22;;;10.29;65.97
22830;BME280;11581;51.250;6.778;2022-11-11T06:01:59;102586.84;;;10.67;65.78
22830;BME280;11581;51.250;6.778;2022-11-11T06:04:45;102540.06;;;10.36;65.72
22830;BME280;11581;51.250;6.778;2022-11-11T06:07:32;102567.41;;;10.52;66.02
22830;BME280;11581;51.250;6.778;2022-11-11T06:10:20;102473.56;;;9.94;65.83
22830;BME280;11581;51.250;6.778;2022-11-11T06:13:14;102600.19;;;10.67;66.52
22830;BME280;11581;51.250;6.778;2022-11-11T06:16:02;102593.03;;;10.67;65.59
22830;BME280;11581;51.250;6.778;2022-11-11T06:18:50;102596.66;;;10.66;65.67
22830;BME280;11581;51.250;6.778;2022-11-11T06:21:37;102592.31;;;10.65;65.72
22830;BME280;11581;51.250;6.778;2022-11-11T06:24:38;102552.22;;;10.40;65.94
22830;BME280;11581;51.250;6.778;2022-11-11T06:27:23;102571.22;;;10.48;65.87
22830;BME280;11581;51.250;6.778;2022-11-11T06:30:10;102597.84;;;10.62;65.93
22830;BME280;11581;51.250;6.778;2022-11-11T06:32:56;102605.84;;;10.62;65.98
22830;BME280;11581;51.250;6.778;2022-11-11T06:35:42;102552.81;;;10.31;65.99
22830;BME280;11581;51.250;6.778;2022-11-11T06:38:28;102574.66;;;10.50;66.12
22830;BME280;11581;51.250;6.778;2022-11-11T06:41:17;102628.91;;;10.63;66.33
22830;BME280;11581;51.250;6.778;2022-11-11T06:44:04;102558.38;;;10.28;66.21
22830;BME280;11581;51.250;6.778;2022-11-11T06:46:50;102630.59;;;10.64;66.29
22830;BME280;11581;51.250;6.778;2022-11-11T06:49:38;102621.66;;;10.65;66.16
22830;BME280;11581;51.250;6.778;2022-11-11T06:52:23;102639.47;;;10.65;66.17
22830;BME280;11581;51.250;6.778;2022-11-11T06:55:10;102596.59;;;10.41;66.21
22830;BME280;11581;51.250;6.778;2022-11-11T06:58:06;102619.69;;;10.55;66.48
22830;BME280;11581;51.250;6.778;2022-11-11T07:00:53;102640.88;;;10.70;66.31
22830;BME280;11581;51.250;6.778;2022-11-11T07:03:39;102581.19;;;10.32;66.42
22830;BME280;11581;51.250;6.778;2022-11-11T07:06:27;102577.59;;;10.33;66.41
22830;BME280;11581;51.250;6.778;2022-11-11T07:09:12;102645.66;;;10.65;66.31
22830;BME280;11581;51.250;6.778;2022-11-11T07:11:58;102643.59;;;10.83;66.48
22830;BME280;11581;51.250;6.778;2022-11-11T07:14:46;102600.63;;;10.61;66.56
22830;BME280;11581;51.250;6.778;2022-11-11T07:17:31;102654.56;;;10.91;66.34
22830;BME280;11581;51.250;6.778;2022-11-11T07:20:17;102650.63;;;10.96;66.54
22830;BME280;11581;51.250;6.778;2022-11-11T07:23:04;102651.19;;;11.01;66.50
22830;BME280;11581;51.250;6.778;2022-11-11T07:25:49;102657.81;;;11.08;66.42
22830;BME280;11581;51.250;6.778;2022-11-11T07:28:35;102652.78;;;11.16;66.46
22830;BME280;11581;51.250;6.778;2022-11-11T07:31:22;102632.06;;;11.07;66.58
22830;BME280;11581;51.250;6.778;2022-11-11T07:34:07;102608.47;;;11.01;66.36
22830;BME280;11581;51.250;6.778;2022-11-11T07:36:53;102658.03;;;11.43;66.36
22830;BME280;11581;51.250;6.778;2022-11-11T07:39:39;102663.38;;;11.56;66.18
22830;BME280;11581;51.250;6.778;2022-11-11T07:42:27;102652.91;;;11.53;66.04
22830;BME280;11581;51.250;6.778;2022-11-11T07:45:14;102604.38;;;11.46;65.67
22830;BME280;11581;51.250;6.778;2022-11-11T07:48:01;102668.28;;;11.87;65.26
22830;BME280;11581;51.250;6.778;2022-11-11T07:50:47;102668.59;;;11.95;65.17
22830;BME280;11581;51.250;6.778;2022-11-11T07:53:34;102614.19;;;11.71;64.99
22830;BME280;11581;51.250;6.778;2022-11-11T07:56:20;102678.94;;;12.12;64.73
22830;BME280;11581;51.250;6.778;2022-11-11T07:59:05;102678.38;;;12.19;64.58
22830;BME280;11581;51.250;6.778;2022-11-11T08:01:50;102683.16;;;12.27;64.40
22830;BME280;11581;51.250;6.778;2022-11-11T08:04:40;102669.91;;;12.25;64.21
22830;BME280;11581;51.250;6.778;2022-11-11T08:07:25;102639.78;;;12.11;64.20
22830;BME280;11581;51.250;6.778;2022-11-11T08:10:12;102635.00;;;12.27;64.13
22830;BME280;11581;51.250;6.778;2022-11-11T08:12:58;102671.66;;;12.61;63.98
22830;BME280;11581;51.250;6.778;2022-11-11T08:16:02;102672.56;;;12.72;64.07
22830;BME280;11581;51.250;6.778;2022-11-11T08:18:50;102679.44;;;12.87;64.04
22830;BME280;11581;51.250;6.778;2022-11-11T08:21:39;102577.16;;;12.37;63.53
22830;BME280;11581;51.250;6.778;2022-11-11T08:24:25;102679.81;;;13.17;63.68
22830;BME280;11581;51.250;6.778;2022-11-11T08:27:10;102643.50;;;13.13;63.43
22830;BME280;11581;51.250;6.778;2022-11-11T08:29:56;102680.13;;;13.48;63.22
22830;BME280;11581;51.250;6.778;2022-11-11T08:32:42;102684.03;;;13.66;62.95
22830;BME280;11581;51.250;6.778;2022-11-11T08:35:29;102680.03;;;13.82;62.29
22830;BME280;11581;51.250;6.778;2022-11-11T08:38:24;102645.75;;;13.75;61.62
22830;BME280;11581;51.250;6.778;2022-11-11T08:41:10;102583.00;;;13.55;61.80
22830;BME280;11581;51.250;6.778;2022-11-11T08:43:56;102681.47;;;14.30;61.60
22830;BME280;11581;51.250;6.778;2022-11-11T08:46:43;102676.53;;;14.46;61.24
22830;BME280;11581;51.250;6.778;2022-11-11T08:49:29;102520.34;;;13.67;60.70
22830;BME280;11581;51.250;6.778;2022-11-11T08:52:20;102655.38;;;14.64;59.81
22830;BME280;11581;51.250;6.778;2022-11-11T08:55:07;102688.41;;;14.96;59.24
22830;BME280;11581;51.250;6.778;2022-11-11T08:57:57;102647.56;;;14.81;58.17
22830;BME280;11581;51.250;6.778;2022-11-11T09:00:45;102609.69;;;14.84;58.72
22830;BME280;11581;51.250;6.778;2022-11-11T09:03:30;102685.63;;;15.38;58.23
22830;BME280;11581;51.250;6.778;2022-11-11T09:06:17;102669.72;;;15.35;57.82
22830;BME280;11581;51.250;6.778;2022-11-11T09:09:03;102641.81;;;15.27;57.33
22830;BME280;11581;51.250;6.778;2022-11-11T09:11:51;102680.81;;;15.63;56.49
22830;BME280;11581;51.250;6.778;2022-11-11T09:14:39;102625.25;;;15.01;56.07
22830;BME280;11581;51.250;6.778;2022-11-11T09:17:27;102691.06;;;15.69;55.80
22830;BME280;11581;51.250;6.778;2022-11-11T09:20:16;102694.44;;;15.71;55.95
22830;BME280;11581;51.250;6.778;2022-11-11T09:23:05;102693.31;;;15.73;55.93
22830;BME280;11581;51.250;6.778;2022-11-11T09:25:51;102676.22;;;15.74;56.03
22830;BME280;11581;51.250;6.778;2022-11-11T09:28:38;102469.13;;;14.54;55.69
22830;BME280;11581;51.250;6.778;2022-11-11T09:31:25;102587.75;;;15.20;55.96
22830;BME280;11581;51.250;6.778;2022-11-11T09:34:12;102707.19;;;15.99;55.88
22830;BME280;11581;51.250;6.778;2022-11-11T09:36:58;102697.56;;;16.06;55.28
22830;BME280;11581;51.250;6.778;2022-11-11T09:39:46;102695.34;;;16.11;55.14
22830;BME280;11581;51.250;6.778;2022-11-11T09:42:36;102695.75;;;16.16;54.44
22830;BME280;11581;51.250;6.778;2022-11-11T09:45:26;102675.03;;;16.07;53.76
22830;BME280;11581;51.250;6.778;2022-11-11T09:48:31;102702.88;;;16.26;53.12
22830;BME280;11581;51.250;6.778;2022-11-11T09:51:22;102698.91;;;16.30;53.62
22830;BME280;11581;51.250;6.778;2022-11-11T09:54:14;102693.25;;;16.33;53.42
22830;BME280;11581;51.250;6.778;2022-11-11T09:57:05;102676.50;;;16.30;53.76
22830;BME280;11581;51.250;6.778;2022-11-11T09:59:56;102699.53;;;16.43;55.04
22830;BME280;11581;51.250;6.778;2022-11-11T10:02:51;102679.38;;;16.38;52.90
22830;BME280;11581;51.250;6.778;2022-11-11T10:05:43;102699.44;;;16.54;52.88
22830;BME280;11581;51.250;6.778;2022-11-11T10:08:34;102701.00;;;16.57;53.42
22830;BME280;11581;51.250;6.778;2022-11-11T10:11:24;102709.22;;;16.65;53.30
22830;BME280;11581;51.250;6.778;2022-11-11T10:14:12;102685.97;;;16.64;53.95
22830;BME280;11581;51.250;6.778;2022-11-11T10:17:04;102713.50;;;16.96;52.54
22830;BME280;11581;51.250;6.778;2022-11-11T10:20:05;102603.16;;;16.47;52.10
22830;BME280;11581;51.250;6.778;2022-11-11T10:23:00;102489.59;;;16.04;51.77
22830;BME280;11581;51.250;6.778;2022-11-11T10:25:52;102717.38;;;17.68;51.60
22830;BME280;11581;51.250;6.778;2022-11-11T10:28:42;102656.19;;;17.68;50.93
22830;BME280;11581;51.250;6.778;2022-11-11T10:31:29;102649.25;;;17.93;52.02
22830;BME280;11581;51.250;6.778;2022-11-11T10:34:16;102703.50;;;18.54;51.36
22830;BME280;11581;51.250;6.778;2022-11-11T10:37:16;102677.94;;;18.66;48.49
22830;BME280;11581;51.250;6.778;2022-11-11T10:40:09;102680.81;;;18.99;48.32
22830;BME280;11581;51.250;6.778;2022-11-11T10:42:59;102554.72;;;18.55;49.15
22830;BME280;11581;51.250;6.778;2022-11-11T10:45:50;102713.78;;;19.63;47.31
22830;BME280;11581;51.250;6.778;2022-11-11T10:48:44;102600.09;;;19.12;46.49
22830;BME280;11581;51.250;6.778;2022-11-11T10:51:36;102680.75;;;19.85;46.50
22830;BME280;11581;51.250;6.778;2022-11-11T10:54:32;102702.28;;;20.21;45.48
22830;BME280;11581;51.250;6.778;2022-11-11T10:57:24;102692.81;;;20.33;45.60
22830;BME280;11581;51.250;6.778;2022-11-11T11:00:14;102654.16;;;20.15;46.12
22830;BME280;11581;51.250;6.778;2022-11-11T11:03:07;102710.72;;;20.83;44.13
22830;BME280;11581;51.250;6.778;2022-11-11T11:06:01;102681.41;;;20.87;44.67
22830;BME280;11581;51.250;6.778;2022-11-11T11:08:52;102706.53;;;21.29;43.63
22830;BME280;11581;51.250;6.778;2022-11-11T11:11:47;102712.78;;;21.53;42.76
22830;BME280;11581;51.250;6.778;2022-11-11T11:14:36;102684.97;;;21.51;42.98
22830;BME280;11581;51.250;6.778;2022-11-11T11:17:29;102727.19;;;21.86;41.92
22830;BME280;11581;51.250;6.778;2022-11-11T11:20:19;102692.88;;;21.85;43.30
22830;BME280;11581;51.250;6.778;2022-11-11T11:23:05;102614.59;;;21.26;42.69
22830;BME280;11581;51.250;6.778;2022-11-11T11:25:52;102714.88;;;22.06;41.65
22830;BME280;11581;51.250;6.778;2022-11-11T11:28:54;102676.09;;;21.57;41.07
22830;BME280;11581;51.250;6.778;2022-11-11T11:31:40;102712.16;;;22.06;42.01
22830;BME280;11581;51.250;6.778;2022-11-11T11:34:43;102518.16;;;20.91;40.62
22830;BME280;11581;51.250;6.778;2022-11-11T11:37:29;102700.94;;;22.09;42.15
22830;BME280;11581;51.250;6.778;2022-11-11T11:40:15;102723.66;;;22.16;42.44
22830;BME280;11581;51.250;6.778;2022-11-11T11:43:00;102461.22;;;20.83;41.73
22830;BME280;11581;51.250;6.778;2022-11-11T11:45:53;102470.56;;;20.89;40.12
22830;BME280;11581;51.250;6.778;2022-11-11T11:48:54;102702.13;;;22.45;39.96
22830;BME280;11581;51.250;6.778;2022-11-11T11:52:00;102683.78;;;22.39;39.60
22830;BME280;11581;51.250;6.778;2022-11-11T11:54:57;102689.56;;;22.44;39.43
22830;BME280;11581;51.250;6.778;2022-11-11T11:57:55;102679.06;;;22.33;39.34
22830;BME280;11581;51.250;6.778;2022-11-11T12:00:53;102686.13;;;22.20;39.60
22830;BME280;11581;51.250;6.778;2022-11-11T12:07:07;102648.44;;;21.70;39.52
22830;BME280;11581;51.250;6.778;2022-11-11T12:10:02;102579.34;;;21.18;39.72
22830;BME280;11581;51.250;6.778;2022-11-11T12:12:58;102604.28;;;21.13;39.96
22830;BME280;11581;51.250;6.778;2022-11-11T12:16:01;102587.16;;;20.81;40.06
22830;BME280;11581;51.250;6.778;2022-11-11T12:19:17;102653.13;;;21.05;40.86
22830;BME280;11581;51.250;6.778;2022-11-11T12:22:21;102670.59;;;21.19;40.67
22830;BME280;11581;51.250;6.778;2022-11-11T12:25:17;102630.91;;;20.94;40.99
22830;BME280;11581;51.250;6.778;2022-11-11T12:28:18;102643.66;;;21.09;41.45
22830;BME280;11581;51.250;6.778;2022-11-11T12:31:24;102659.38;;;21.38;41.22
22830;BME280;11581;51.250;6.778;2022-11-11T12:34:24;102526.16;;;20.77;40.74
22830;BME280;11581;51.250;6.778;2022-11-11T12:37:21;102563.72;;;21.20;40.79
22830;BME280;11581;51.250;6.778;2022-11-11T12:40:32;102643.31;;;21.83;40.21
22830;BME280;11581;51.250;6.778;2022-11-11T12:43:26;102590.72;;;21.68;40.19
22830;BME280;11581;51.250;6.778;2022-11-11T12:46:28;102645.75;;;22.09;39.95
22830;BME280;11581;51.250;6.778;2022-11-11T12:49:40;102593.66;;;21.97;40.21
22830;BME280;11581;51.250;6.778;2022-11-11T12:52:37;102615.66;;;22.18;39.24
22830;BME280;11581;51.250;6.778;2022-11-11T12:55:32;102638.66;;;22.30;38.90
22830;BME280;11581;51.250;6.778;2022-11-11T12:58:29;102576.75;;;21.87;39.06
22830;BME280;11581;51.250;6.778;2022-11-11T13:01:31;102641.47;;;22.14;38.85
22830;BME280;11581;51.250;6.778;2022-11-11T13:04:32;102641.19;;;22.01;39.13
22830;BME280;11581;51.250;6.778;2022-11-11T13:07:37;102631.41;;;21.84;39.06
22830;BME280;11581;51.250;6.778;2022-11-11T13:10:37;102548.47;;;21.19;39.13
22830;BME280;11581;51.250;6.778;2022-11-11T13:13:39;102627.97;;;21.51;39.53
22830;BME280;11581;51.250;6.778;2022-11-11T13:16:28;102617.66;;;21.31;40.10
22830;BME280;11581;51.250;6.778;2022-11-11T13:19:17;102635.28;;;21.35;40.28
22830;BME280;11581;51.250;6.778;2022-11-11T13:22:11;102592.59;;;21.05;40.45
22830;BME280;11581;51.250;6.778;2022-11-11T13:25:02;102625.47;;;21.26;40.08
22830;BME280;11581;51.250;6.778;2022-11-11T13:27:52;102641.25;;;21.22;40.42
22830;BME280;11581;51.250;6.778;2022-11-11T13:30:45;102601.78;;;20.96;40.39
22830;BME280;11581;51.250;6.778;2022-11-11T13:33:42;102590.53;;;20.91;40.17
22830;BME280;11581;51.250;6.778;2022-11-11T13:36:34;102601.56;;;20.89;40.58
22830;BME280;11581;51.250;6.778;2022-11-11T13:39:29;102640.06;;;21.17;40.40
22830;BME280;11581;51.250;6.778;2022-11-11T13:42:20;102549.03;;;20.74;40.33
22830;BME280;11581;51.250;6.778;2022-11-11T13:45:21;102576.16;;;20.90;40.69
22830;BME280;11581;51.250;6.778;2022-11-11T13:48:18;102604.63;;;21.10;40.12
22830;BME280;11581;51.250;6.778;2022-11-11T13:51:18;102592.59;;;20.97;40.24
22830;BME280;11581;51.250;6.778;2022-11-11T13:54:18;102583.28;;;20.99;40.08
22830;BME280;11581;51.250;6.778;2022-11-11T13:57:08;102564.44;;;20.90;40.11
22830;BME280;11581;51.250;6.778;2022-11-11T14:00:06;102626.66;;;21.23;40.05
22830;BME280;11581;51.250;6.778;2022-11-11T14:03:35;102576.31;;;20.97;40.36
22830;BME280;11581;51.250;6.778;2022-11-11T14:09:59;102506.84;;;20.72;40.32
22830;BME280;11581;51.250;6.778;2022-11-11T14:12:47;102489.09;;;20.61;40.48
22830;BME280;11581;51.250;6.778;2022-11-11T14:15:39;102560.72;;;21.07;39.51
22830;BME280;11581;51.250;6.778;2022-11-11T14:18:41;102593.53;;;21.36;39.39
22830;BME280;11581;51.250;6.778;2022-11-11T14:21:43;102621.69;;;21.43;39.59
22830;BME280;11581;51.250;6.778;2022-11-11T14:24:36;102620.34;;;21.39;39.27
22830;BME280;11581;51.250;6.778;2022-11-11T14:27:28;102461.81;;;20.39;39.13
22830;BME280;11581;51.250;6.778;2022-11-11T14:30:35;102614.81;;;21.16;39.68
22830;BME280;11581;51.250;6.778;2022-11-11T14:33:34;102624.81;;;21.16;39.08
22830;BME280;11581;51.250;6.778;2022-11-11T14:36:31;102562.78;;;20.73;39.00
22830;BME280;11581;51.250;6.778;2022-11-11T14:39:31;102602.75;;;20.87;39.23
22830;BME280;11581;51.250;6.778;2022-11-11T14:42:43;102615.28;;;20.88;39.57
22830;BME280;11581;51.250;6.778;2022-11-11T14:45:59;102542.09;;;20.32;39.80
22830;BME280;11581;51.250;6.778;2022-11-11T14:48:53;102641.38;;;20.65;39.76
22830;BME280;11581;51.250;6.778;2022-11-11T14:54:52;102619.66;;;20.33;40.00
22830;BME280;11581;51.250;6.778;2022-11-11T14:57:45;102642.31;;;20.16;39.98
22830;BME280;11581;51.250;6.778;2022-11-11T15:00:41;102616.47;;;19.96;40.47
22830;BME280;11581;51.250;6.778;2022-11-11T15:03:31;102594.88;;;19.70;40.77
22830;BME280;11581;51.250;6.778;2022-11-11T15:06:24;102622.41;;;19.57;41.08